Alpha, Kentucky
Current Conditions -  °F | °C
As of 4:56 PM on Tuesday 21 Oct 2014 (Local Time) from KEKQ Reporting Station
Broken Clouds Broken Clouds  
Wind Chill: 60°   Ceiling: 5500
Heat Index: 60°   Visibility: 10mi
Dew Point: 43°   Wind: 8mph
Humidity: 54%   Direction: 350°N
Pressure: 30.09"   Gusts: NA
Location:  36.77°N, 85.01°W
Report Text: KEKQ 212156Z AUTO 35007KT 320V030 10SM FEW043 BKN055 16/06 A3009 RMK AO2 T01550061 BKN V OVC SLP196
Loading
Personal Weather Stations






























Interactive Weather Map New forecast layout! Learn more

10-Day Weather Forecast

Advertisements
Track Severe Weather on mobile